sensor_id;sensor_type;location;lat;lon;timestamp;pressure;altitude;pressure_sealevel;temperature;humidity
22352;BME280;11343;43.246;27.978;2022-09-02T00:01:28;99542.28;;;22.80;100.00
22352;BME280;11343;43.246;27.978;2022-09-02T00:04:33;99541.66;;;22.78;100.00
22352;BME280;11343;43.246;27.978;2022-09-02T00:07:40;99540.63;;;22.79;100.00
22352;BME280;11343;43.246;27.978;2022-09-02T00:10:45;99541.25;;;22.81;100.00
22352;BME280;11343;43.246;27.978;2022-09-02T00:13:51;99541.66;;;22.78;100.00
22352;BME280;11343;43.246;27.978;2022-09-02T00:16:56;99540.50;;;22.73;100.00
22352;BME280;11343;43.246;27.978;2022-09-02T00:20:04;99547.66;;;22.72;100.00
22352;BME280;11343;43.246;27.978;2022-09-02T00:23:11;99542.00;;;22.75;100.00
22352;BME280;11343;43.246;27.978;2022-09-02T00:26:16;99539.16;;;22.77;100.00
22352;BME280;11343;43.246;27.978;2022-09-02T00:29:22;99544.03;;;22.73;100.00
22352;BME280;11343;43.246;27.978;2022-09-02T00:32:27;99539.50;;;22.74;100.00
22352;BME280;11343;43.246;27.978;2022-09-02T00:35:33;99541.84;;;22.69;100.00
22352;BME280;11343;43.246;27.978;2022-09-02T00:38:40;99544.69;;;22.67;100.00
22352;BME280;11343;43.246;27.978;2022-09-02T00:41:46;99540.19;;;22.67;100.00
22352;BME280;11343;43.246;27.978;2022-09-02T00:44:51;99536.72;;;22.67;100.00
22352;BME280;11343;43.246;27.978;2022-09-02T00:47:56;99541.41;;;22.65;100.00
22352;BME280;11343;43.246;27.978;2022-09-02T00:51:01;99541.41;;;22.65;100.00
22352;BME280;11343;43.246;27.978;2022-09-02T00:54:11;99543.06;;;22.66;100.00
22352;BME280;11343;43.246;27.978;2022-09-02T00:57:17;99543.41;;;22.63;100.00
22352;BME280;11343;43.246;27.978;2022-09-02T01:00:25;99540.28;;;22.59;100.00
22352;BME280;11343;43.246;27.978;2022-09-02T01:03:38;99543.16;;;22.58;100.00
22352;BME280;11343;43.246;27.978;2022-09-02T01:06:44;99535.78;;;22.60;100.00
22352;BME280;11343;43.246;27.978;2022-09-02T01:09:50;99540.09;;;22.61;100.00
22352;BME280;11343;43.246;27.978;2022-09-02T01:12:58;99539.28;;;22.60;100.00
22352;BME280;11343;43.246;27.978;2022-09-02T01:16:08;99540.09;;;22.61;100.00
22352;BME280;11343;43.246;27.978;2022-09-02T01:19:20;99547.81;;;22.56;100.00
22352;BME280;11343;43.246;27.978;2022-09-02T01:22:28;99548.81;;;22.55;100.00
22352;BME280;11343;43.246;27.978;2022-09-02T01:25:34;99547.81;;;22.56;100.00
22352;BME280;11343;43.246;27.978;2022-09-02T01:28:39;99548.16;;;22.53;100.00
22352;BME280;11343;43.246;27.978;2022-09-02T01:31:45;99542.72;;;22.46;100.00
22352;BME280;11343;43.246;27.978;2022-09-02T01:34:50;99548.94;;;22.39;100.00
22352;BME280;11343;43.246;27.978;2022-09-02T01:37:58;99539.69;;;22.35;100.00
22352;BME280;11343;43.246;27.978;2022-09-02T01:41:04;99541.50;;;22.34;100.00
22352;BME280;11343;43.246;27.978;2022-09-02T01:44:10;99533.09;;;22.31;100.00
22352;BME280;11343;43.246;27.978;2022-09-02T01:47:20;99538.41;;;22.31;100.00
22352;BME280;11343;43.246;27.978;2022-09-02T01:50:26;99533.09;;;22.31;100.00
22352;BME280;11343;43.246;27.978;2022-09-02T01:53:33;99531.44;;;22.30;100.00
22352;BME280;11343;43.246;27.978;2022-09-02T01:56:38;99539.69;;;22.35;100.00
22352;BME280;11343;43.246;27.978;2022-09-02T01:59:43;99535.03;;;22.37;100.00
22352;BME280;11343;43.246;27.978;2022-09-02T02:02:49;99533.81;;;22.39;100.00
22352;BME280;11343;43.246;27.978;2022-09-02T02:05:54;99526.66;;;22.40;100.00
22352;BME280;11343;43.246;27.978;2022-09-02T02:09:00;99528.31;;;22.41;100.00
22352;BME280;11343;43.246;27.978;2022-09-02T02:12:06;99519.34;;;22.42;100.00
22352;BME280;11343;43.246;27.978;2022-09-02T02:15:13;99526.97;;;22.45;100.00
22352;BME280;11343;43.246;27.978;2022-09-02T02:18:18;99519.44;;;22.48;100.00
22352;BME280;11343;43.246;27.978;2022-09-02T02:21:24;99524.75;;;22.48;100.00
22352;BME280;11343;43.246;27.978;2022-09-02T02:24:31;99517.44;;;22.50;100.00
22352;BME280;11343;43.246;27.978;2022-09-02T02:27:36;99516.63;;;22.50;100.00
22352;BME280;11343;43.246;27.978;2022-09-02T02:30:46;99518.28;;;22.51;100.00
22352;BME280;11343;43.246;27.978;2022-09-02T02:33:51;99518.91;;;22.53;100.00
22352;BME280;11343;43.246;27.978;2022-09-02T02:36:57;99516.72;;;22.56;100.00
22352;BME280;11343;43.246;27.978;2022-09-02T02:40:04;99520.13;;;22.65;100.00
22352;BME280;11343;43.246;27.978;2022-09-02T02:43:10;99515.75;;;22.72;100.00
22352;BME280;11343;43.246;27.978;2022-09-02T02:46:16;99515.03;;;22.78;100.00
22352;BME280;11343;43.246;27.978;2022-09-02T02:49:21;99513.47;;;22.84;100.00
22352;BME280;11343;43.246;27.978;2022-09-02T02:52:26;99503.31;;;22.87;100.00
22352;BME280;11343;43.246;27.978;2022-09-02T02:55:33;99503.91;;;22.89;100.00
22352;BME280;11343;43.246;27.978;2022-09-02T02:58:39;99507.88;;;22.93;100.00
22352;BME280;11343;43.246;27.978;2022-09-02T03:01:44;99510.81;;;22.98;100.00
22352;BME280;11343;43.246;27.978;2022-09-02T03:04:50;99508.16;;;22.98;100.00
22352;BME280;11343;43.246;27.978;2022-09-02T03:07:56;99512.09;;;23.02;100.00
22352;BME280;11343;43.246;27.978;2022-09-02T03:11:03;99516.56;;;23.02;100.00
22352;BME280;11343;43.246;27.978;2022-09-02T03:14:10;99514.22;;;23.07;100.00
22352;BME280;11343;43.246;27.978;2022-09-02T03:17:16;99505.94;;;23.02;100.00
22352;BME280;11343;43.246;27.978;2022-09-02T03:20:22;99506.41;;;23.06;100.00
22352;BME280;11343;43.246;27.978;2022-09-02T03:23:27;99511.72;;;23.06;100.00
22352;BME280;11343;43.246;27.978;2022-09-02T03:26:34;99512.38;;;23.08;100.00
22352;BME280;11343;43.246;27.978;2022-09-02T03:29:40;99514.66;;;23.11;100.00
22352;BME280;11343;43.246;27.978;2022-09-02T03:32:45;99516.69;;;23.09;100.00
22352;BME280;11343;43.246;27.978;2022-09-02T03:35:52;99512.00;;;23.11;100.00
22352;BME280;11343;43.246;27.978;2022-09-02T03:38:57;99516.06;;;23.07;100.00
22352;BME280;11343;43.246;27.978;2022-09-02T03:42:04;99519.63;;;23.14;100.00
22352;BME280;11343;43.246;27.978;2022-09-02T03:45:18;99516.78;;;23.15;100.00
22352;BME280;11343;43.246;27.978;2022-09-02T03:48:23;99521.06;;;23.16;100.00
22352;BME280;11343;43.246;27.978;2022-09-02T03:51:28;99521.53;;;23.20;100.00
22352;BME280;11343;43.246;27.978;2022-09-02T03:54:34;99518.53;;;23.23;100.00
22352;BME280;11343;43.246;27.978;2022-09-02T03:57:41;99523.03;;;23.22;100.00
22352;BME280;11343;43.246;27.978;2022-09-02T04:00:48;99520.53;;;23.21;100.00
22352;BME280;11343;43.246;27.978;2022-09-02T04:03:54;99529.53;;;23.20;100.00
22352;BME280;11343;43.246;27.978;2022-09-02T04:07:00;99525.88;;;23.21;100.00
22352;BME280;11343;43.246;27.978;2022-09-02T04:10:05;99522.38;;;23.20;100.00
22352;BME280;11343;43.246;27.978;2022-09-02T04:13:13;99522.56;;;23.19;100.00
22352;BME280;11343;43.246;27.978;2022-09-02T04:16:19;99529.53;;;23.20;100.00
22352;BME280;11343;43.246;27.978;2022-09-02T04:19:25;99522.09;;;23.15;100.00
22352;BME280;11343;43.246;27.978;2022-09-02T04:22:31;99526.50;;;23.23;100.00
22352;BME280;11343;43.246;27.978;2022-09-02T04:25:38;99531.72;;;23.31;100.00
22352;BME280;11343;43.246;27.978;2022-09-02T04:28:44;99524.38;;;23.33;100.00
22352;BME280;11343;43.246;27.978;2022-09-02T04:31:50;99528.03;;;23.32;100.00
22352;BME280;11343;43.246;27.978;2022-09-02T04:34:55;99531.72;;;23.31;100.00
22352;BME280;11343;43.246;27.978;2022-09-02T04:38:00;99521.06;;;23.31;100.00
22352;BME280;11343;43.246;27.978;2022-09-02T04:41:06;99522.78;;;23.38;100.00
22352;BME280;11343;43.246;27.978;2022-09-02T04:44:13;99531.81;;;23.52;100.00
22352;BME280;11343;43.246;27.978;2022-09-02T04:47:19;99529.25;;;23.59;100.00
22352;BME280;11343;43.246;27.978;2022-09-02T04:50:25;99533.50;;;23.74;100.00
22352;BME280;11343;43.246;27.978;2022-09-02T04:53:30;99532.50;;;23.97;100.00
22352;BME280;11343;43.246;27.978;2022-09-02T04:56:38;99524.91;;;24.15;100.00
22352;BME280;11343;43.246;27.978;2022-09-02T04:59:45;99522.44;;;24.13;100.00
22352;BME280;11343;43.246;27.978;2022-09-02T05:02:52;99519.72;;;24.28;100.00
22352;BME280;11343;43.246;27.978;2022-09-02T05:05:58;99531.50;;;24.40;100.00
22352;BME280;11343;43.246;27.978;2022-09-02T05:09:03;99525.13;;;24.63;100.00
22352;BME280;11343;43.246;27.978;2022-09-02T05:12:08;99525.69;;;24.86;100.00
22352;BME280;11343;43.246;27.978;2022-09-02T05:15:16;99521.31;;;25.06;100.00
22352;BME280;11343;43.246;27.978;2022-09-02T05:18:21;99520.38;;;25.20;100.00
22352;BME280;11343;43.246;27.978;2022-09-02T05:21:26;99538.94;;;25.35;100.00
22352;BME280;11343;43.246;27.978;2022-09-02T05:24:32;99535.94;;;25.58;100.00
22352;BME280;11343;43.246;27.978;2022-09-02T05:27:37;99533.34;;;25.71;100.00
22352;BME280;11343;43.246;27.978;2022-09-02T05:30:44;99527.22;;;25.97;100.00
22352;BME280;11343;43.246;27.978;2022-09-02T05:33:49;99528.50;;;26.07;100.00
22352;BME280;11343;43.246;27.978;2022-09-02T05:36:55;99526.84;;;26.20;100.00
22352;BME280;11343;43.246;27.978;2022-09-02T05:40:01;99522.72;;;26.24;100.00
22352;BME280;11343;43.246;27.978;2022-09-02T05:43:08;99526.69;;;26.54;100.00
22352;BME280;11343;43.246;27.978;2022-09-02T05:46:15;99527.69;;;26.66;100.00
22352;BME280;11343;43.246;27.978;2022-09-02T05:49:21;99533.06;;;26.60;100.00
22352;BME280;11343;43.246;27.978;2022-09-02T05:52:27;99529.34;;;26.61;100.00
22352;BME280;11343;43.246;27.978;2022-09-02T05:55:33;99531.00;;;26.68;100.00
22352;BME280;11343;43.246;27.978;2022-09-02T05:58:38;99531.41;;;26.78;100.00
22352;BME280;11343;43.246;27.978;2022-09-02T06:01:45;99535.91;;;27.04;100.00
22352;BME280;11343;43.246;27.978;2022-09-02T06:04:52;99540.03;;;26.94;100.00
22352;BME280;11343;43.246;27.978;2022-09-02T06:07:58;99544.59;;;27.00;100.00
22352;BME280;11343;43.246;27.978;2022-09-02T06:11:05;99532.63;;;26.96;100.00
22352;BME280;11343;43.246;27.978;2022-09-02T06:14:11;99537.38;;;26.94;100.00
22352;BME280;11343;43.246;27.978;2022-09-02T06:17:19;99549.47;;;27.16;100.00
22352;BME280;11343;43.246;27.978;2022-09-02T06:20:25;99554.84;;;27.16;100.00
22352;BME280;11343;43.246;27.978;2022-09-02T06:23:32;99554.84;;;27.16;100.00
22352;BME280;11343;43.246;27.978;2022-09-02T06:26:38;99560.63;;;27.13;100.00
22352;BME280;11343;43.246;27.978;2022-09-02T06:29:43;99565.22;;;26.93;100.00
22352;BME280;11343;43.246;27.978;2022-09-02T06:32:50;99567.25;;;26.77;100.00
22352;BME280;11343;43.246;27.978;2022-09-02T06:35:55;99566.44;;;26.70;100.00
22352;BME280;11343;43.246;27.978;2022-09-02T06:39:01;99564.78;;;26.56;100.00
22352;BME280;11343;43.246;27.978;2022-09-02T06:42:06;99574.66;;;26.49;100.00
22352;BME280;11343;43.246;27.978;2022-09-02T06:45:12;99578.38;;;26.48;100.00
22352;BME280;11343;43.246;27.978;2022-09-02T06:48:18;99583.91;;;26.79;100.00
22352;BME280;11343;43.246;27.978;2022-09-02T06:51:24;99587.63;;;26.72;100.00
22352;BME280;11343;43.246;27.978;2022-09-02T06:54:29;99591.16;;;26.85;100.00
22352;BME280;11343;43.246;27.978;2022-09-02T06:57:35;99587.22;;;27.01;100.00
22352;BME280;11343;43.246;27.978;2022-09-02T07:00:41;99590.25;;;27.31;100.00
22352;BME280;11343;43.246;27.978;2022-09-02T07:03:48;99581.97;;;27.46;100.00
22352;BME280;11343;43.246;27.978;2022-09-02T07:07:10;99578.03;;;27.61;100.00
22352;BME280;11343;43.246;27.978;2022-09-02T07:10:16;99581.44;;;27.82;100.00
22352;BME280;11343;43.246;27.978;2022-09-02T07:13:22;99577.56;;;28.09;100.00
22352;BME280;11343;43.246;27.978;2022-09-02T07:16:27;99586.59;;;28.21;100.00
22352;BME280;11343;43.246;27.978;2022-09-02T07:19:35;99577.28;;;27.86;100.00
22352;BME280;11343;43.246;27.978;2022-09-02T07:22:40;99581.97;;;27.52;100.00
22352;BME280;11343;43.246;27.978;2022-09-02T07:25:46;99588.16;;;27.40;100.00
22352;BME280;11343;43.246;27.978;2022-09-02T07:28:51;99571.06;;;27.92;100.00
22352;BME280;11343;43.246;27.978;2022-09-02T07:31:56;99589.53;;;28.13;100.00
22352;BME280;11343;43.246;27.978;2022-09-02T07:35:04;99583.06;;;28.27;100.00
22352;BME280;11343;43.246;27.978;2022-09-02T07:38:10;99576.63;;;28.28;100.00
22352;BME280;11343;43.246;27.978;2022-09-02T07:41:16;99590.34;;;28.07;100.00
22352;BME280;11343;43.246;27.978;2022-09-02T07:44:21;99584.81;;;28.02;100.00
22352;BME280;11343;43.246;27.978;2022-09-02T07:47:27;99599.56;;;27.86;100.00
22352;BME280;11343;43.246;27.978;2022-09-02T07:50:36;99580.50;;;28.01;100.00
22352;BME280;11343;43.246;27.978;2022-09-02T07:53:42;99573.94;;;27.97;100.00
22352;BME280;11343;43.246;27.978;2022-09-02T07:56:48;99583.75;;;28.16;100.00
22352;BME280;11343;43.246;27.978;2022-09-02T07:59:53;99589.09;;;28.16;100.00
22352;BME280;11343;43.246;27.978;2022-09-02T08:02:59;99584.69;;;28.28;100.00
22352;BME280;11343;43.246;27.978;2022-09-02T08:06:06;99600.16;;;28.33;100.00
22352;BME280;11343;43.246;27.978;2022-09-02T08:09:12;99587.47;;;28.47;100.00
22352;BME280;11343;43.246;27.978;2022-09-02T08:12:17;99588.16;;;28.35;100.00
22352;BME280;11343;43.246;27.978;2022-09-02T08:15:25;99580.34;;;28.59;100.00
22352;BME280;11343;43.246;27.978;2022-09-02T08:18:32;99603.47;;;28.28;100.00
22352;BME280;11343;43.246;27.978;2022-09-02T08:21:39;99594.47;;;28.16;100.00
22352;BME280;11343;43.246;27.978;2022-09-02T08:24:44;99604.53;;;27.83;100.00
22352;BME280;11343;43.246;27.978;2022-09-02T08:27:50;99598.88;;;27.53;100.00
22352;BME280;11343;43.246;27.978;2022-09-02T08:30:58;99605.88;;;27.47;100.00
22352;BME280;11343;43.246;27.978;2022-09-02T08:34:04;99600.56;;;27.34;100.00
22352;BME280;11343;43.246;27.978;2022-09-02T08:37:10;99593.13;;;27.36;100.00
22352;BME280;11343;43.246;27.978;2022-09-02T08:40:16;99595.22;;;27.14;100.00
22352;BME280;11343;43.246;27.978;2022-09-02T08:43:26;99590.25;;;27.31;100.00
22352;BME280;11343;43.246;27.978;2022-09-02T08:46:32;99579.91;;;27.48;100.00
22352;BME280;11343;43.246;27.978;2022-09-02T08:49:39;99582.22;;;27.89;100.00
22352;BME280;11343;43.246;27.978;2022-09-02T08:52:52;99564.81;;;28.61;100.00
22352;BME280;11343;43.246;27.978;2022-09-02T08:56:02;99571.97;;;28.49;100.00
22352;BME280;11343;43.246;27.978;2022-09-02T08:59:09;99561.66;;;28.46;100.00
22352;BME280;11343;43.246;27.978;2022-09-02T09:02:16;99572.13;;;28.22;100.00
22352;BME280;11343;43.246;27.978;2022-09-02T09:05:28;99577.09;;;27.81;100.00
22352;BME280;11343;43.246;27.978;2022-09-02T09:08:38;99562.03;;;27.80;100.00
22352;BME280;11343;43.246;27.978;2022-09-02T09:11:49;99569.97;;;28.37;100.00
22352;BME280;11343;43.246;27.978;2022-09-02T09:15:00;99572.03;;;28.35;100.00
22352;BME280;11343;43.246;27.978;2022-09-02T09:18:10;99574.56;;;28.30;100.00
22352;BME280;11343;43.246;27.978;2022-09-02T09:21:17;99581.22;;;28.21;100.00
22352;BME280;11343;43.246;27.978;2022-09-02T09:24:25;99577.34;;;28.49;100.00
22352;BME280;11343;43.246;27.978;2022-09-02T09:27:32;99576.03;;;28.26;100.00
22352;BME280;11343;43.246;27.978;2022-09-02T09:30:37;99578.72;;;28.26;100.00
22352;BME280;11343;43.246;27.978;2022-09-02T09:37:03;99580.94;;;27.98;100.00
22352;BME280;11343;43.246;27.978;2022-09-02T09:40:26;99573.22;;;27.77;100.00
22352;BME280;11343;43.246;27.978;2022-09-02T09:43:33;99567.41;;;27.80;100.00
22352;BME280;11343;43.246;27.978;2022-09-02T09:46:38;99559.69;;;27.45;100.00
22352;BME280;11343;43.246;27.978;2022-09-02T09:49:43;99555.66;;;28.12;100.00
22352;BME280;11343;43.246;27.978;2022-09-02T09:52:48;99556.44;;;28.26;100.00
22352;BME280;11343;43.246;27.978;2022-09-02T09:55:56;99561.09;;;28.05;100.00
22352;BME280;11343;43.246;27.978;2022-09-02T09:59:02;99558.84;;;27.51;100.00
22352;BME280;11343;43.246;27.978;2022-09-02T10:02:10;99556.88;;;27.85;100.00
22352;BME280;11343;43.246;27.978;2022-09-02T10:05:27;99543.47;;;27.78;100.00
22352;BME280;11343;43.246;27.978;2022-09-02T10:08:33;99536.69;;;28.07;100.00
22352;BME280;11343;43.246;27.978;2022-09-02T10:11:52;99525.78;;;28.02;100.00
22352;BME280;11343;43.246;27.978;2022-09-02T10:14:58;99504.06;;;28.10;100.00
22352;BME280;11343;43.246;27.978;2022-09-02T10:18:06;99505.38;;;28.01;100.00
22352;BME280;11343;43.246;27.978;2022-09-02T10:21:23;99498.19;;;28.26;100.00
22352;BME280;11343;43.246;27.978;2022-09-02T10:24:36;99487.19;;;28.03;100.00
22352;BME280;11343;43.246;27.978;2022-09-02T10:27:48;99503.66;;;28.13;100.00
22352;BME280;11343;43.246;27.978;2022-09-02T10:30:59;99490.91;;;28.02;100.00
22352;BME280;11343;43.246;27.978;2022-09-02T10:34:10;99491.63;;;27.91;100.00
22352;BME280;11343;43.246;27.978;2022-09-02T10:37:20;99496.03;;;28.10;100.00
22352;BME280;11343;43.246;27.978;2022-09-02T10:40:29;99505.84;;;28.23;100.00
22352;BME280;11343;43.246;27.978;2022-09-02T10:43:47;99504.50;;;28.07;100.00
22352;BME280;11343;43.246;27.978;2022-09-02T10:47:01;99504.34;;;28.33;100.00
22352;BME280;11343;43.246;27.978;2022-09-02T10:50:10;99503.38;;;27.90;100.00
22352;BME280;11343;43.246;27.978;2022-09-02T10:53:29;99506.53;;;28.12;100.00
22352;BME280;11343;43.246;27.978;2022-09-02T10:56:37;99503.03;;;28.11;100.00
22352;BME280;11343;43.246;27.978;2022-09-02T10:59:48;99499.50;;;28.17;100.00
22352;BME280;11343;43.246;27.978;2022-09-02T11:02:58;99502.06;;;28.30;100.00
22352;BME280;11343;43.246;27.978;2022-09-02T11:06:10;99511.53;;;28.58;100.00
22352;BME280;11343;43.246;27.978;2022-09-02T11:09:23;99518.19;;;28.55;100.00
22352;BME280;11343;43.246;27.978;2022-09-02T11:12:31;99527.41;;;28.41;100.00
22352;BME280;11343;43.246;27.978;2022-09-02T11:15:42;99534.00;;;28.07;100.00
22352;BME280;11343;43.246;27.978;2022-09-02T11:18:51;99533.06;;;27.50;100.00
22352;BME280;11343;43.246;27.978;2022-09-02T11:22:02;99523.41;;;27.43;100.00
22352;BME280;11343;43.246;27.978;2022-09-02T11:25:13;99520.06;;;27.60;100.00
22352;BME280;11343;43.246;27.978;2022-09-02T11:28:23;99520.78;;;27.81;100.00
22352;BME280;11343;43.246;27.978;2022-09-02T11:31:31;99516.75;;;27.58;100.00
22352;BME280;11343;43.246;27.978;2022-09-02T11:34:42;99525.50;;;27.34;100.00
22352;BME280;11343;43.246;27.978;2022-09-02T11:37:49;99523.53;;;27.10;100.00
22352;BME280;11343;43.246;27.978;2022-09-02T11:51:38;99494.72;;;26.85;100.00
22352;BME280;11343;43.246;27.978;2022-09-02T11:54:47;99509.56;;;26.68;100.00
22352;BME280;11343;43.246;27.978;2022-09-02T11:57:53;99507.97;;;26.41;100.00
22352;BME280;11343;43.246;27.978;2022-09-02T12:01:05;99514.50;;;26.19;100.00
22352;BME280;11343;43.246;27.978;2022-09-02T12:04:27;99497.63;;;26.51;100.00
22352;BME280;11343;43.246;27.978;2022-09-02T12:07:54;99484.88;;;26.53;100.00
22352;BME280;11343;43.246;27.978;2022-09-02T12:11:00;99503.41;;;26.68;100.00
22352;BME280;11343;43.246;27.978;2022-09-02T12:14:08;99483.03;;;26.54;100.00
22352;BME280;11343;43.246;27.978;2022-09-02T12:17:31;99479.97;;;26.50;100.00
22352;BME280;11343;43.246;27.978;2022-09-02T12:24:20;99472.94;;;26.62;100.00
22352;BME280;11343;43.246;27.978;2022-09-02T12:27:31;99480.75;;;26.50;100.00
22352;BME280;11343;43.246;27.978;2022-09-02T12:34:11;99487.34;;;26.61;100.00
22352;BME280;11343;43.246;27.978;2022-09-02T12:37:53;99487.75;;;26.65;100.00
22352;BME280;11343;43.246;27.978;2022-09-02T12:41:08;99495.19;;;26.30;100.00
22352;BME280;11343;43.246;27.978;2022-09-02T12:44:25;99495.16;;;26.17;100.00
22352;BME280;11343;43.246;27.978;2022-09-02T12:47:39;99492.69;;;26.22;100.00
22352;BME280;11343;43.246;27.978;2022-09-02T12:50:52;99497.84;;;26.30;100.00
22352;BME280;11343;43.246;27.978;2022-09-02T12:53:59;99481.59;;;26.25;100.00
22352;BME280;11343;43.246;27.978;2022-09-02T12:57:07;99472.13;;;26.55;100.00
22352;BME280;11343;43.246;27.978;2022-09-02T13:00:14;99455.00;;;26.69;100.00
22352;BME280;11343;43.246;27.978;2022-09-02T13:03:26;99458.53;;;26.63;100.00
22352;BME280;11343;43.246;27.978;2022-09-02T13:06:43;99449.06;;;26.41;100.00
22352;BME280;11343;43.246;27.978;2022-09-02T13:16:39;99446.59;;;26.39;100.00
22352;BME280;11343;43.246;27.978;2022-09-02T13:19:53;99447.84;;;26.37;100.00
22352;BME280;11343;43.246;27.978;2022-09-02T13:30:04;99424.34;;;26.45;100.00
22352;BME280;11343;43.246;27.978;2022-09-02T13:33:12;99425.16;;;26.59;100.00
22352;BME280;11343;43.246;27.978;2022-09-02T13:36:20;99418.13;;;26.71;100.00
22352;BME280;11343;43.246;27.978;2022-09-02T13:39:28;99425.16;;;26.59;100.00
22352;BME280;11343;43.246;27.978;2022-09-02T13:42:34;99420.63;;;26.60;100.00
22352;BME280;11343;43.246;27.978;2022-09-02T13:45:40;99420.84;;;26.45;100.00
22352;BME280;11343;43.246;27.978;2022-09-02T13:48:47;99417.00;;;26.28;100.00
22352;BME280;11343;43.246;27.978;2022-09-02T13:51:53;99407.50;;;26.19;100.00
22352;BME280;11343;43.246;27.978;2022-09-02T13:54:59;99421.72;;;26.26;100.00
22352;BME280;11343;43.246;27.978;2022-09-02T13:58:04;99434.69;;;26.35;100.00
22352;BME280;11343;43.246;27.978;2022-09-02T14:01:25;99431.19;;;26.28;100.00
22352;BME280;11343;43.246;27.978;2022-09-02T14:04:33;99445.56;;;26.07;100.00
22352;BME280;11343;43.246;27.978;2022-09-02T14:07:40;99437.94;;;25.91;100.00
22352;BME280;11343;43.246;27.978;2022-09-02T14:10:46;99436.69;;;25.74;100.00
22352;BME280;11343;43.246;27.978;2022-09-02T14:13:51;99418.59;;;25.63;100.00
22352;BME280;11343;43.246;27.978;2022-09-02T14:20:20;99416.88;;;25.49;100.00
22352;BME280;11343;43.246;27.978;2022-09-02T14:23:27;99417.25;;;25.32;100.00
22352;BME280;11343;43.246;27.978;2022-09-02T14:26:33;99418.06;;;25.26;100.00
22352;BME280;11343;43.246;27.978;2022-09-02T14:29:42;99415.38;;;25.20;100.00
22352;BME280;11343;43.246;27.978;2022-09-02T14:32:48;99427.44;;;25.09;100.00
22352;BME280;11343;43.246;27.978;2022-09-02T14:35:55;99435.63;;;25.01;100.00
22352;BME280;11343;43.246;27.978;2022-09-02T14:39:09;99443.69;;;24.80;100.00
22352;BME280;11343;43.246;27.978;2022-09-02T14:42:14;99440.53;;;24.91;100.00
22352;BME280;11343;43.246;27.978;2022-09-02T14:45:24;99459.44;;;24.96;100.00
22352;BME280;11343;43.246;27.978;2022-09-02T14:48:30;99456.13;;;24.94;100.00
22352;BME280;11343;43.246;27.978;2022-09-02T14:51:43;99471.16;;;25.02;100.00
22352;BME280;11343;43.246;27.978;2022-09-02T14:54:50;99463.59;;;25.05;100.00
22352;BME280;11343;43.246;27.978;2022-09-02T14:57:59;99435.44;;;25.09;100.00
22352;BME280;11343;43.246;27.978;2022-09-02T15:01:05;99431.13;;;25.08;100.00
22352;BME280;11343;43.246;27.978;2022-09-02T15:04:12;99445.13;;;25.17;100.00
22352;BME280;11343;43.246;27.978;2022-09-02T15:07:20;99454.41;;;25.14;100.00
22352;BME280;11343;43.246;27.978;2022-09-02T15:10:25;99459.03;;;24.99;100.00
22352;BME280;11343;43.246;27.978;2022-09-02T15:13:31;99470.53;;;24.93;100.00
22352;BME280;11343;43.246;27.978;2022-09-02T15:16:38;99489.72;;;24.82;100.00
22352;BME280;11343;43.246;27.978;2022-09-02T15:19:43;99477.88;;;24.56;100.00
22352;BME280;11343;43.246;27.978;2022-09-02T15:22:49;99473.91;;;24.52;100.00
22352;BME280;11343;43.246;27.978;2022-09-02T15:25:56;99452.50;;;24.39;100.00
22352;BME280;11343;43.246;27.978;2022-09-02T15:29:01;99431.63;;;24.49;100.00
22352;BME280;11343;43.246;27.978;2022-09-02T15:32:07;99428.97;;;24.49;100.00
22352;BME280;11343;43.246;27.978;2022-09-02T15:35:12;99429.56;;;24.51;100.00
22352;BME280;11343;43.246;27.978;2022-09-02T15:38:19;99424.66;;;24.48;100.00
22352;BME280;11343;43.246;27.978;2022-09-02T15:41:24;99419.53;;;24.53;100.00
22352;BME280;11343;43.246;27.978;2022-09-02T15:44:31;99421.34;;;24.46;100.00
22352;BME280;11343;43.246;27.978;2022-09-02T15:47:37;99443.47;;;24.40;100.00
22352;BME280;11343;43.246;27.978;2022-09-02T15:50:42;99454.94;;;24.34;100.00
22352;BME280;11343;43.246;27.978;2022-09-02T15:53:54;99449.41;;;24.14;100.00
22352;BME280;11343;43.246;27.978;2022-09-02T15:56:59;99454.09;;;24.12;100.00
22352;BME280;11343;43.246;27.978;2022-09-02T16:00:05;99471.56;;;24.15;100.00
22352;BME280;11343;43.246;27.978;2022-09-02T16:07:01;99468.22;;;24.06;100.00
22352;BME280;11343;43.246;27.978;2022-09-02T16:10:09;99488.13;;;24.10;100.00
22352;BME280;11343;43.246;27.978;2022-09-02T16:13:14;99498.56;;;24.05;100.00
22352;BME280;11343;43.246;27.978;2022-09-02T16:16:19;99510.81;;;24.00;100.00
22352;BME280;11343;43.246;27.978;2022-09-02T16:19:25;99507.38;;;23.85;100.00
22352;BME280;11343;43.246;27.978;2022-09-02T16:22:33;99493.53;;;23.96;100.00
22352;BME280;11343;43.246;27.978;2022-09-02T16:25:42;99486.94;;;23.92;100.00
22352;BME280;11343;43.246;27.978;2022-09-02T16:28:48;99479.19;;;23.97;100.00
22352;BME280;11343;43.246;27.978;2022-09-02T16:31:54;99469.53;;;23.96;100.00
22352;BME280;11343;43.246;27.978;2022-09-02T16:35:20;99489.59;;;23.92;100.00
22352;BME280;11343;43.246;27.978;2022-09-02T16:38:25;99503.69;;;23.86;100.00
22352;BME280;11343;43.246;27.978;2022-09-02T16:41:32;99493.88;;;23.86;100.00
22352;BME280;11343;43.246;27.978;2022-09-02T16:44:38;99503.69;;;23.86;100.00
22352;BME280;11343;43.246;27.978;2022-09-02T16:47:44;99512.31;;;23.88;100.00
22352;BME280;11343;43.246;27.978;2022-09-02T16:50:49;99520.94;;;23.90;100.00